Time;durP1;ratioP1;P1;durP2;ratioP2;P2;SDS_P1;SDS_P2;PMS_P1;PMS_P2;Temp;Humidity;BMP_temperature;BMP_pressure;BME280_temperature;BME280_humidity;BME280_pressure;Samples;Min_cycle;Max_cycle;Signal;HPM_P1;HPM_P2
2022/12/10 00:00:46;;;;;;;51.35;22.10;;;;;;;0.91;99.64;94952.72;5031952;28;20050;-88
2022/12/10 00:03:13;;;;;;;50.38;21.60;;;;;;;0.92;99.66;94956.19;5034020;28;20065;-81
2022/12/10 00:05:39;;;;;;;48.22;21.23;;;;;;;0.92;99.50;94951.63;5032545;28;20045;-83
2022/12/10 00:08:06;;;;;;;46.50;21.50;;;;;;;0.92;99.70;94948.16;5031597;28;20050;-84
2022/12/10 00:10:32;;;;;;;53.00;23.20;;;;;;;0.93;99.70;94939.81;5019639;28;20056;-80
2022/12/10 00:12:59;;;;;;;47.72;21.05;;;;;;;0.93;99.14;94939.81;5020999;28;20046;-86
2022/12/10 00:15:25;;;;;;;45.40;19.98;;;;;;;0.95;98.92;94943.00;5025429;28;20056;-85
2022/12/10 00:17:53;;;;;;;41.70;19.35;;;;;;;0.94;98.95;94948.66;5017837;28;20414;-81
2022/12/10 00:20:19;;;;;;;41.40;19.70;;;;;;;0.92;99.10;94953.50;5017584;28;20430;-84
2022/12/10 00:22:46;;;;;;;43.42;20.55;;;;;;;0.92;99.03;94954.31;5017450;28;20045;-80
2022/12/10 00:25:12;;;;;;;42.58;18.60;;;;;;;0.94;99.14;94945.97;5017923;28;20494;-81
2022/12/10 00:27:39;;;;;;;42.40;18.90;;;;;;;0.97;99.11;94948.06;5017136;28;20050;-80
2022/12/10 00:30:06;;;;;;;42.75;19.38;;;;;;;0.99;99.19;94937.84;5017188;28;20042;-83
2022/12/10 00:32:33;;;;;;;38.58;18.63;;;;;;;0.96;99.15;94951.84;5016760;28;20054;-80
2022/12/10 00:35:00;;;;;;;42.20;19.98;;;;;;;0.98;98.83;94946.97;5017467;28;20057;-80
2022/12/10 00:37:27;;;;;;;39.72;19.13;;;;;;;1.00;98.47;94936.78;5016355;28;20050;-81
2022/12/10 00:39:53;;;;;;;42.80;18.75;;;;;;;1.00;98.37;94936.78;5009856;28;20506;-87
2022/12/10 00:42:20;;;;;;;45.10;19.98;;;;;;;1.01;98.49;94941.06;5017331;28;20041;-77
2022/12/10 00:44:47;;;;;;;46.47;20.33;;;;;;;1.00;98.43;94942.16;5018993;28;20054;-84
2022/12/10 00:47:13;;;;;;;42.03;19.65;;;;;;;1.01;98.43;94941.84;5017198;28;20046;-83
2022/12/10 00:49:40;;;;;;;46.58;19.98;;;;;;;1.03;98.24;94944.22;5016690;28;20541;-82
2022/12/10 00:52:08;;;;;;;37.78;18.98;;;;;;;1.02;98.67;94953.38;5017745;28;20048;-85
2022/12/10 00:54:34;;;;;;;42.65;19.77;;;;;;;1.07;98.64;94950.59;5017720;28;20060;-80
2022/12/10 00:57:01;;;;;;;40.88;20.27;;;;;;;1.03;98.36;94947.69;5017279;28;20053;-83
2022/12/10 00:59:27;;;;;;;45.25;20.73;;;;;;;1.03;98.44;94965.66;5016382;28;20068;-80
2022/12/10 01:01:53;;;;;;;39.00;18.63;;;;;;;1.00;98.46;94968.94;5008979;28;20049;-80
2022/12/10 01:04:20;;;;;;;46.42;21.20;;;;;;;1.03;98.56;94965.66;5016755;28;20061;-80
2022/12/10 01:06:49;;;;;;;41.00;20.27;;;;;;;1.05;98.58;94974.25;5015276;28;20057;-85
2022/12/10 01:09:20;;;;;;;40.05;19.05;;;;;;;1.06;98.54;94975.81;5017349;28;20042;-82
2022/12/10 01:11:48;;;;;;;41.85;19.88;;;;;;;1.08;98.35;94979.00;5016578;28;20050;-89
2022/12/10 01:14:18;;;;;;;40.47;19.23;;;;;;;1.09;98.48;94985.94;5018190;28;20046;-84
2022/12/10 01:16:45;;;;;;;44.05;21.00;;;;;;;1.10;98.23;94992.94;5017715;28;20054;-88
2022/12/10 01:19:12;;;;;;;41.92;20.98;;;;;;;1.09;98.18;94985.94;5017701;28;20042;-82
2022/12/10 01:21:38;;;;;;;39.95;19.70;;;;;;;1.13;97.98;94986.16;5017566;28;20049;-81
2022/12/10 01:24:05;;;;;;;43.00;21.20;;;;;;;1.06;97.64;94991.91;5016234;28;20050;-83
2022/12/10 01:26:35;;;;;;;39.60;19.17;;;;;;;1.08;97.90;94991.59;5017116;28;20052;-86
2022/12/10 01:29:03;;;;;;;42.63;20.88;;;;;;;1.10;97.73;94987.56;5017051;28;20042;-82
2022/12/10 01:31:32;;;;;;;45.20;20.90;;;;;;;0.99;98.05;94986.09;5017705;28;20050;-87
2022/12/10 01:33:59;;;;;;;46.60;23.38;;;;;;;1.02;97.85;94986.31;5017158;28;20045;-80
2022/12/10 01:36:27;;;;;;;43.35;21.15;;;;;;;1.04;98.10;94981.47;5017341;28;20503;-85
2022/12/10 01:38:54;;;;;;;44.83;23.00;;;;;;;1.04;98.05;94977.97;5010068;28;20061;-84
2022/12/10 01:41:23;;;;;;;47.08;22.92;;;;;;;0.97;98.39;94977.56;5015386;28;20046;-80
2022/12/10 01:43:54;;;;;;;42.65;21.23;;;;;;;0.99;98.61;94970.00;5015598;28;20053;-83
2022/12/10 01:46:22;;;;;;;42.08;21.52;;;;;;;0.95;98.47;94977.06;5015935;28;20131;-80
2022/12/10 01:48:48;;;;;;;39.60;20.50;;;;;;;0.97;98.20;94982.91;5015692;28;20053;-80
2022/12/10 01:51:16;;;;;;;46.42;22.02;;;;;;;1.00;98.40;94985.81;5017379;28;20050;-85
2022/12/10 01:53:43;;;;;;;44.17;22.08;;;;;;;1.00;98.09;94995.75;5017928;28;20050;-85
2022/12/10 01:56:11;;;;;;;43.72;21.25;;;;;;;0.98;98.33;94989.88;5017575;28;20046;-80
2022/12/10 01:58:38;;;;;;;46.20;21.35;;;;;;;0.99;98.29;94994.97;5016150;28;20133;-83
2022/12/10 02:01:11;;;;;;;46.53;22.95;;;;;;;1.00;98.41;94987.72;5018665;28;20050;-84
2022/12/10 02:03:49;;;;;;;43.67;21.50;;;;;;;0.87;98.36;94993.78;5017782;28;20049;-87
2022/12/10 02:06:26;;;;;;;47.22;21.95;;;;;;;0.85;98.64;95002.13;5017047;28;20061;-83
2022/12/10 02:09:01;;;;;;;42.95;21.42;;;;;;;0.87;98.66;94991.91;5017340;28;20046;-78
2022/12/10 02:11:34;;;;;;;47.70;22.70;;;;;;;0.82;98.94;94999.22;5015378;28;20054;-77
2022/12/10 02:14:05;;;;;;;47.90;22.43;;;;;;;0.68;98.97;94994.59;5015622;28;20045;-80
2022/12/10 02:16:38;;;;;;;42.33;22.42;;;;;;;0.64;99.26;94996.25;5013943;28;20503;-83
2022/12/10 02:19:20;;;;;;;44.50;21.75;;;;;;;0.60;99.63;94992.53;5015797;28;20038;-81
2022/12/10 02:21:50;;;;;;;49.22;24.20;;;;;;;0.59;99.80;94988.28;5015470;28;20049;-82
2022/12/10 02:24:20;;;;;;;52.58;24.50;;;;;;;0.56;99.77;94996.88;5015366;28;20056;-90
2022/12/10 02:26:55;;;;;;;46.88;22.33;;;;;;;0.51;100.00;94991.56;5016139;28;20053;-81
2022/12/10 02:29:26;;;;;;;43.50;21.65;;;;;;;0.50;100.00;94998.81;5014904;28;20069;-80
2022/12/10 02:31:56;;;;;;;42.67;21.27;;;;;;;0.46;100.00;95000.47;5009542;28;20096;-81
2022/12/10 02:34:26;;;;;;;42.90;22.45;;;;;;;0.41;100.00;94994.38;5015498;28;20085;-81
2022/12/10 02:36:55;;;;;;;45.67;22.95;;;;;;;0.37;100.00;94996.06;5015888;28;20057;-82
2022/12/10 02:39:26;;;;;;;45.72;22.17;;;;;;;0.29;100.00;94997.47;5014594;28;20056;-83
2022/12/10 02:41:54;;;;;;;43.65;22.27;;;;;;;0.22;100.00;94984.44;5013658;28;20053;-81
2022/12/10 02:44:25;;;;;;;44.42;22.60;;;;;;;0.19;100.00;95000.28;5014075;28;20058;-83
2022/12/10 02:46:56;;;;;;;43.65;21.88;;;;;;;0.09;100.00;94987.78;5013640;28;20069;-81
2022/12/10 02:49:24;;;;;;;45.50;23.40;;;;;;;0.05;100.00;94992.13;5014446;28;20050;-79
2022/12/10 02:51:51;;;;;;;45.95;22.27;;;;;;;0.02;100.00;94990.03;5013844;28;20054;-80
2022/12/10 02:54:39;;;;;;;49.30;24.75;;;;;;;-0.05;100.00;94981.56;5013837;28;20045;-80
2022/12/10 02:57:15;;;;;;;47.38;21.95;;;;;;;-0.05;100.00;94981.56;5006951;28;20518;-79
2022/12/10 02:59:52;;;;;;;46.13;23.15;;;;;;;-0.07;100.00;94981.03;5013274;28;20129;-80
2022/12/10 03:02:25;;;;;;;47.10;23.50;;;;;;;-0.12;100.00;94978.41;5013747;28;20050;-80
2022/12/10 03:04:54;;;;;;;;;;;;;;;-0.11;100.00;94974.63;5014293;28;20045;-81
2022/12/10 03:07:29;;;;;;;45.35;22.20;;;;;;;-0.16;100.00;94966.66;5014074;28;20271;-78
2022/12/10 03:10:01;;;;;;;45.50;22.98;;;;;;;-0.18;100.00;94980.31;5006440;28;20053;-79
2022/12/10 03:12:37;;;;;;;51.33;23.63;;;;;;;-0.21;100.00;94982.75;5013431;28;20046;-77
2022/12/10 03:15:09;;;;;;;50.80;23.38;;;;;;;-0.18;100.00;94979.53;5013353;28;20058;-79
2022/12/10 03:17:39;;;;;;;51.05;24.02;;;;;;;-0.18;100.00;94982.22;5014098;28;20050;-79
2022/12/10 03:20:09;;;;;;;51.38;24.75;;;;;;;-0.21;100.00;94980.09;5014399;28;20049;-79
2022/12/10 03:22:38;;;;;;;53.03;24.15;;;;;;;-0.17;100.00;94973.88;5014037;28;20096;-78
2022/12/10 03:25:06;;;;;;;49.40;23.73;;;;;;;-0.18;100.00;94974.97;5014966;28;20045;-79
2022/12/10 03:27:34;;;;;;;49.85;24.00;;;;;;;-0.16;100.00;94978.16;5014081;28;20422;-79
2022/12/10 03:30:01;;;;;;;51.58;24.52;;;;;;;-0.14;100.00;94972.53;5013220;28;20073;-78
2022/12/10 03:32:30;;;;;;;50.70;24.40;;;;;;;-0.13;100.00;94966.91;5013882;28;20050;-78
2022/12/10 03:34:59;;;;;;;57.17;26.17;;;;;;;-0.14;100.00;94969.88;5014085;28;20564;-82
2022/12/10 03:37:27;;;;;;;49.33;24.45;;;;;;;-0.09;100.00;94980.53;5013901;28;20069;-80
2022/12/10 03:39:54;;;;;;;49.45;24.17;;;;;;;-0.08;100.00;94984.78;5006474;28;20411;-81
2022/12/10 03:42:21;;;;;;;53.70;24.42;;;;;;;-0.10;100.00;94981.59;5013981;28;20054;-77
2022/12/10 03:44:51;;;;;;;47.38;24.70;;;;;;;-0.09;100.00;94972.50;5013930;28;20060;-81
2022/12/10 03:47:17;;;;;;;54.65;25.38;;;;;;;-0.12;100.00;94978.41;5014053;28;20058;-80
2022/12/10 03:49:45;;;;;;;51.88;25.15;;;;;;;-0.12;100.00;94983.75;5013446;28;20066;-80
2022/12/10 03:52:12;;;;;;;47.78;23.70;;;;;;;-0.09;100.00;94977.84;5013802;28;20046;-78
2022/12/10 03:54:39;;;;;;;48.53;25.05;;;;;;;-0.05;100.00;94986.91;5013978;28;20097;-80
2022/12/10 03:57:05;;;;;;;49.28;23.50;;;;;;;-0.06;100.00;94983.41;5014400;28;20424;-79
2022/12/10 03:59:32;;;;;;;51.30;25.80;;;;;;;-0.06;100.00;94979.94;5013711;28;20049;-79
2022/12/10 04:01:58;;;;;;;57.58;26.50;;;;;;;-0.07;100.00;94989.03;5014025;28;20041;-78
2022/12/10 04:04:25;;;;;;;58.55;26.88;;;;;;;-0.13;100.00;94974.94;5013938;28;20050;-80
2022/12/10 04:06:53;;;;;;;66.15;27.70;;;;;;;-0.11;100.00;94969.28;5013954;28;20053;-78
2022/12/10 04:09:19;;;;;;;64.55;26.25;;;;;;;-0.10;100.00;94976.25;5014683;28;20054;-80
2022/12/10 04:11:46;;;;;;;62.53;26.40;;;;;;;-0.03;100.00;94974.03;5013917;28;20503;-80
2022/12/10 04:16:56;;;;;;;62.03;25.98;;;;;;;0.03;100.00;94975.56;4986167;28;20495;-79
2022/12/10 04:19:23;;;;;;;66.35;28.20;;;;;;;0.04;100.00;94971.78;5014519;28;20050;-81
2022/12/10 04:27:24;;;;;;;76.40;24.67;;;;;;;0.03;100.00;94978.22;5014204;28;20165;-80
2022/12/10 04:29:51;;;;;;;63.53;25.83;;;;;;;0.03;100.00;94978.22;5014154;28;20054;-82
2022/12/10 04:32:19;;;;;;;77.68;24.98;;;;;;;0.03;100.00;94980.91;5014235;28;20057;-81
2022/12/10 04:34:46;;;;;;;68.07;26.52;;;;;;;0.05;100.00;94984.09;5014470;28;20545;-79
2022/12/10 04:37:15;;;;;;;70.85;26.38;;;;;;;0.09;100.00;94992.34;5014722;28;20073;-82
2022/12/10 04:39:43;;;;;;;64.20;26.95;;;;;;;0.12;100.00;95000.63;5013475;28;20073;-80
2022/12/10 04:42:10;;;;;;;58.72;27.00;;;;;;;0.15;100.00;94989.31;5014600;28;20042;-80
2022/12/10 04:44:37;;;;;;;64.15;27.00;;;;;;;0.15;100.00;94994.69;5016961;28;20499;-78
2022/12/10 04:47:04;;;;;;;60.40;25.85;;;;;;;0.13;100.00;94991.50;5017515;28;20225;-79
2022/12/10 04:49:31;;;;;;;62.90;26.00;;;;;;;0.15;100.00;94985.84;5017795;28;20251;-81
2022/12/10 04:51:57;;;;;;;51.55;24.80;;;;;;;0.19;100.00;94992.25;5017502;28;20042;-79
2022/12/10 04:54:24;;;;;;;58.25;25.95;;;;;;;0.20;100.00;94991.94;5017238;28;20041;-79
2022/12/10 04:56:52;;;;;;;61.75;27.92;;;;;;;0.21;100.00;94990.88;5017009;28;20499;-81
2022/12/10 04:59:19;;;;;;;59.78;26.90;;;;;;;0.22;100.00;94992.47;5016691;28;20054;-81
2022/12/10 05:01:46;;;;;;;63.88;28.13;;;;;;;0.23;100.00;94994.06;5017056;28;20049;-81
2022/12/10 05:04:15;;;;;;;55.60;26.60;;;;;;;0.25;100.00;94989.22;5017712;28;20046;-78
2022/12/10 05:06:42;;;;;;;62.65;27.20;;;;;;;0.26;100.00;94992.69;5016744;28;20056;-77
2022/12/10 05:09:09;;;;;;;57.33;27.02;;;;;;;0.26;100.00;94995.34;5017375;28;20046;-79
2022/12/10 05:11:35;;;;;;;58.42;28.25;;;;;;;0.20;100.00;95001.84;5016805;28;20050;-79
2022/12/10 05:14:04;;;;;;;56.30;27.40;;;;;;;0.26;100.00;95006.06;5016905;28;20038;-80
2022/12/10 05:16:32;;;;;;;58.47;27.13;;;;;;;0.30;100.00;95007.09;5016858;28;20074;-78
2022/12/10 05:19:00;;;;;;;59.35;25.95;;;;;;;0.28;100.00;94997.78;5017200;28;20494;-80
2022/12/10 05:23:27;;;;;;;58.85;26.50;;;;;;;0.28;100.00;94981.72;5016731;28;20074;-78
2022/12/10 05:24:15;;;;;;;50.85;26.10;;;;;;;0.29;100.00;94981.41;5011942;28;20081;-80
2022/12/10 05:26:43;;;;;;;54.42;26.27;;;;;;;0.32;100.00;94982.75;5016767;28;20045;-79
2022/12/10 05:29:12;;;;;;;55.05;25.70;;;;;;;0.34;100.00;94985.91;5016847;28;20045;-79
2022/12/10 05:31:39;;;;;;;53.53;26.80;;;;;;;0.36;100.00;94975.69;5016552;28;20058;-82
2022/12/10 05:34:07;;;;;;;57.97;26.33;;;;;;;0.36;100.00;94981.06;5016618;28;20057;-80
2022/12/10 05:36:34;;;;;;;53.63;25.40;;;;;;;0.36;100.00;94978.38;5016766;28;20054;-79
2022/12/10 05:39:01;;;;;;;49.78;24.33;;;;;;;0.40;100.00;94976.72;5017195;28;20050;-80
2022/12/10 05:41:29;;;;;;;57.45;26.00;;;;;;;0.41;100.00;94975.63;5016603;28;20049;-81
2022/12/10 05:43:58;;;;;;;53.25;25.20;;;;;;;0.40;100.00;94972.16;5008733;28;20042;-79
2022/12/10 05:46:28;;;;;;;53.15;25.40;;;;;;;0.35;100.00;94982.16;5016614;28;20073;-80
2022/12/10 05:48:55;;;;;;;58.78;25.88;;;;;;;0.33;100.00;94973.63;5008734;28;20046;-83
2022/12/10 05:51:23;;;;;;;62.22;26.70;;;;;;;0.37;100.00;94982.69;5016488;28;20053;-84
2022/12/10 05:53:51;;;;;;;64.22;27.35;;;;;;;0.38;100.00;94982.38;5015729;28;20041;-79
2022/12/10 05:56:20;;;;;;;61.92;26.88;;;;;;;0.39;100.00;94978.63;5016713;28;20054;-81
2022/12/10 05:58:48;;;;;;;55.33;26.58;;;;;;;0.43;100.00;94981.53;5015758;28;20049;-83
2022/12/10 06:01:16;;;;;;;59.35;25.75;;;;;;;0.45;100.00;94995.41;5015727;28;20053;-82
2022/12/10 06:03:45;;;;;;;62.35;25.95;;;;;;;0.47;100.00;95001.25;5015316;28;20042;-80
2022/12/10 06:06:12;;;;;;;53.95;25.67;;;;;;;0.50;100.00;95006.06;5016135;28;20499;-80
2022/12/10 06:08:40;;;;;;;65.90;26.23;;;;;;;0.52;100.00;95009.25;5016063;28;20426;-84
2022/12/10 06:11:09;;;;;;;63.13;26.08;;;;;;;0.52;100.00;95009.25;5015643;28;20133;-80
2022/12/10 06:13:36;;;;;;;75.72;26.63;;;;;;;0.49;100.00;94999.91;5015858;28;20045;-80
2022/12/10 06:16:05;;;;;;;59.25;24.92;;;;;;;0.45;100.00;95000.75;5024316;28;20052;-79
2022/12/10 06:18:31;;;;;;;60.50;25.25;;;;;;;0.42;100.00;95009.38;5015926;28;20056;-84
2022/12/10 06:20:59;;;;;;;63.03;24.08;;;;;;;0.43;100.00;95016.34;5016263;28;20042;-83
2022/12/10 06:23:26;;;;;;;45.67;22.70;;;;;;;0.45;100.00;95014.16;5016001;28;20422;-79
2022/12/10 06:25:52;;;;;;;53.00;24.25;;;;;;;0.47;100.00;95028.03;5016330;28;20053;-84
2022/12/10 06:28:19;;;;;;;50.20;23.38;;;;;;;0.48;100.00;95027.00;5016149;28;20053;-80
2022/12/10 06:30:45;;;;;;;55.05;25.48;;;;;;;0.50;100.00;95016.78;5016116;28;20056;-83
2022/12/10 06:33:12;;;;;;;47.45;23.33;;;;;;;0.48;100.00;95018.94;5016242;28;20048;-80
2022/12/10 06:35:38;;;;;;;50.58;24.88;;;;;;;0.49;100.00;95015.19;5016089;28;20058;-80
2022/12/10 06:38:06;;;;;;;52.72;23.67;;;;;;;0.51;100.00;95021.84;5016108;28;20048;-79
2022/12/10 06:40:33;;;;;;;58.55;26.75;;;;;;;0.52;100.00;95019.94;5015603;28;20045;-82
2022/12/10 06:42:59;;;;;;;58.60;25.42;;;;;;;0.53;100.00;95010.84;5015842;28;20049;-77
2022/12/10 06:45:26;;;;;;;71.18;27.02;;;;;;;0.53;100.00;95016.22;5015843;28;20049;-84
2022/12/10 06:47:52;;;;;;;54.95;26.65;;;;;;;0.56;100.00;95012.94;5016707;28;20436;-82
2022/12/10 06:50:19;;;;;;;53.55;26.98;;;;;;;0.58;100.00;95013.47;5017014;28;20050;-81
2022/12/10 06:52:45;;;;;;;52.70;25.83;;;;;;;0.58;100.00;95013.47;5016129;28;20475;-80
2022/12/10 06:55:13;;;;;;;56.10;26.25;;;;;;;0.58;100.00;95013.47;5016607;28;20049;-79
2022/12/10 06:57:39;;;;;;;68.70;27.90;;;;;;;0.59;100.00;95015.06;5016109;28;20490;-79
2022/12/10 07:00:07;;;;;;;55.03;26.05;;;;;;;0.61;100.00;95018.22;5018076;28;20042;-81
2022/12/10 07:02:34;;;;;;;54.35;25.77;;;;;;;0.60;100.00;95013.97;5015875;28;20053;-80
2022/12/10 07:05:01;;;;;;;52.65;24.48;;;;;;;0.59;100.00;95015.06;5017547;28;20049;-84
2022/12/10 07:07:27;;;;;;;58.70;27.42;;;;;;;0.59;100.00;94999.00;5018146;28;20045;-78
2022/12/10 07:09:54;;;;;;;50.75;24.65;;;;;;;0.60;100.00;94999.78;5018068;28;20052;-82
2022/12/10 07:12:22;;;;;;;54.03;25.48;;;;;;;0.61;100.00;95007.53;5018533;28;20046;-80
2022/12/10 07:14:48;;;;;;;51.58;24.83;;;;;;;0.58;100.00;95013.47;5017853;28;20038;-80
2022/12/10 07:17:15;;;;;;;53.05;24.88;;;;;;;0.59;100.00;95017.75;5017883;28;20046;-81
2022/12/10 07:19:41;;;;;;;55.50;26.08;;;;;;;0.60;100.00;95021.22;5016388;28;20242;-80
2022/12/10 07:22:08;;;;;;;55.22;26.25;;;;;;;0.61;100.00;95018.22;5016604;28;20518;-79
2022/12/10 07:24:34;;;;;;;53.55;25.33;;;;;;;0.58;100.00;95023.41;5015922;28;20053;-83
2022/12/10 07:27:01;;;;;;;50.70;23.90;;;;;;;0.58;100.00;95029.53;5016616;28;20041;-80
2022/12/10 07:29:28;;;;;;;59.25;27.98;;;;;;;0.59;100.00;95017.75;5015723;28;20057;-79
2022/12/10 07:31:55;;;;;;;56.03;25.35;;;;;;;0.52;100.00;95019.94;5007907;28;20053;-82
2022/12/10 07:34:22;;;;;;;56.60;25.58;;;;;;;0.56;100.00;95010.25;5015841;28;20077;-80
2022/12/10 07:36:48;;;;;;;57.67;27.17;;;;;;;0.54;100.00;95014.31;5014578;28;20427;-80
2022/12/10 07:39:17;;;;;;;55.08;26.73;;;;;;;0.57;100.00;95022.56;5015435;28;20050;-80
2022/12/10 07:41:44;;;;;;;58.13;27.42;;;;;;;0.57;100.00;95016.41;5016297;28;20057;-81
2022/12/10 07:44:12;;;;;;;57.83;26.13;;;;;;;0.64;100.00;95016.88;5016508;28;20042;-80
2022/12/10 07:46:41;;;;;;;56.88;26.50;;;;;;;0.68;100.00;95005.31;5016825;28;20064;-81
2022/12/10 07:49:08;;;;;;;57.05;28.10;;;;;;;0.66;100.00;95007.47;5016926;28;20088;-80
2022/12/10 07:51:35;;;;;;;61.30;30.30;;;;;;;0.68;100.00;95013.34;5015945;28;20058;-79
2022/12/10 07:54:02;;;;;;;63.05;29.60;;;;;;;0.71;100.00;95020.78;5017365;28;20114;-79
2022/12/10 07:56:29;;;;;;;69.63;29.88;;;;;;;0.73;100.00;95026.69;5016603;28;20054;-80
2022/12/10 07:58:56;;;;;;;58.70;27.30;;;;;;;0.76;100.00;95019.94;5016563;28;20105;-82
2022/12/10 08:01:24;;;;;;;59.80;27.35;;;;;;;0.83;100.00;95016.88;5016703;28;20133;-79
2022/12/10 08:03:56;;;;;;;55.03;25.95;;;;;;;0.85;100.00;95026.25;5016646;28;20042;-79
2022/12/10 08:06:23;;;;;;;58.97;26.90;;;;;;;0.82;100.00;95017.97;5016622;28;20046;-81
2022/12/10 08:08:51;;;;;;;54.35;25.80;;;;;;;0.82;100.00;95012.63;5015876;28;20048;-79
2022/12/10 08:11:19;;;;;;;50.60;24.75;;;;;;;0.85;100.00;95014.72;5016121;28;20072;-80
2022/12/10 08:13:46;;;;;;;53.60;25.40;;;;;;;0.88;100.00;95016.81;5016096;28;20470;-81
2022/12/10 08:16:15;;;;;;;61.67;28.25;;;;;;;0.91;100.00;95018.94;5018845;28;20064;-79
2022/12/10 08:18:42;;;;;;;60.75;27.85;;;;;;;0.95;100.00;95017.28;5020832;28;20050;-83
2022/12/10 08:21:13;;;;;;;61.33;28.92;;;;;;;0.91;100.00;95016.25;5022164;28;20072;-81
2022/12/10 08:23:41;;;;;;;66.88;29.38;;;;;;;0.93;100.00;95022.09;5021487;28;20131;-79
2022/12/10 08:26:09;;;;;;;57.17;27.30;;;;;;;0.95;100.00;95028.00;5020259;28;20056;-80
2022/12/10 08:28:36;;;;;;;54.85;25.80;;;;;;;0.93;100.00;95030.16;5021017;28;20050;-83
2022/12/10 08:31:03;;;;;;;51.50;23.77;;;;;;;0.94;100.00;95021.84;5020571;28;20052;-81
2022/12/10 08:33:30;;;;;;;51.05;24.35;;;;;;;0.86;100.00;95024.34;5021662;28;20050;-79
2022/12/10 08:35:58;;;;;;;49.90;23.25;;;;;;;0.88;100.00;95031.00;5021683;28;20050;-80
2022/12/10 08:38:26;;;;;;;50.30;24.95;;;;;;;0.87;100.00;95036.66;5019680;28;20060;-80
2022/12/10 08:40:52;;;;;;;52.38;24.08;;;;;;;0.83;100.00;95032.97;5028169;28;20041;-80
2022/12/10 08:43:19;;;;;;;54.33;24.80;;;;;;;0.88;100.00;95032.91;5020982;28;20244;-80
2022/12/10 08:45:45;;;;;;;48.13;23.13;;;;;;;0.91;100.00;95033.13;5020098;28;20042;-82
2022/12/10 08:48:16;;;;;;;49.33;23.17;;;;;;;0.91;100.00;95026.97;5020941;28;20054;-78
2022/12/10 08:50:42;;;;;;;51.60;23.63;;;;;;;0.95;100.00;95025.31;5020485;28;20482;-82
2022/12/10 08:53:09;;;;;;;58.70;26.85;;;;;;;0.96;100.00;95037.63;5019882;28;20056;-82
2022/12/10 08:55:40;;;;;;;60.08;26.50;;;;;;;0.98;100.00;95040.78;5019585;28;20422;-82
2022/12/10 08:58:06;;;;;;;54.50;23.83;;;;;;;0.95;100.00;95038.72;5019614;28;20053;-80
2022/12/10 09:00:33;;;;;;;56.97;25.23;;;;;;;0.97;100.00;95041.88;5019064;28;20050;-82
2022/12/10 09:02:59;;;;;;;55.22;25.25;;;;;;;0.96;100.00;95048.34;5019927;28;20050;-80
2022/12/10 09:05:26;;;;;;;57.35;25.00;;;;;;;0.97;100.00;95041.88;5020766;28;20050;-78
2022/12/10 09:07:52;;;;;;;70.32;28.30;;;;;;;0.96;100.00;95046.47;5012769;28;20056;-81
2022/12/10 09:10:19;;;;;;;65.53;28.27;;;;;;;1.02;100.00;95039.94;5020003;28;20061;-78
2022/12/10 09:12:47;;;;;;;58.63;26.60;;;;;;;1.10;100.00;95040.34;5019568;28;20315;-80
2022/12/10 09:15:13;;;;;;;58.30;26.15;;;;;;;1.11;100.00;95047.34;5019407;28;20045;-82
2022/12/10 09:17:40;;;;;;;51.40;25.60;;;;;;;1.14;100.00;95042.16;5019740;28;20056;-80
2022/12/10 09:20:07;;;;;;;63.72;26.02;;;;;;;1.18;100.00;95047.75;5019784;28;20054;-79
2022/12/10 09:22:36;;;;;;;62.13;27.08;;;;;;;1.06;100.00;95044.72;5019440;28;20403;-80
2022/12/10 09:25:03;;;;;;;60.72;27.08;;;;;;;1.08;100.00;95048.69;5020259;28;20088;-78
2022/12/10 09:27:30;;;;;;;60.45;26.27;;;;;;;1.17;100.00;95052.34;5019367;28;20046;-80
2022/12/10 09:29:58;;;;;;;63.15;27.05;;;;;;;1.15;100.00;95049.16;5020960;28;20075;-79
2022/12/10 09:32:25;;;;;;;52.45;25.50;;;;;;;1.19;100.00;95055.50;5019646;28;20050;-81
2022/12/10 09:34:51;;;;;;;57.50;25.45;;;;;;;1.18;100.00;95059.28;5020384;28;20262;-81
2022/12/10 09:37:18;;;;;;;56.65;25.08;;;;;;;1.11;100.00;95058.84;5019775;28;20046;-82
2022/12/10 09:39:44;;;;;;;57.45;25.80;;;;;;;1.04;100.00;95053.03;5018641;28;20050;-82
2022/12/10 09:42:32;;;;;;;56.60;25.55;;;;;;;1.09;100.00;95047.59;5019239;28;20050;-86
2022/12/10 09:45:06;;;;;;;55.88;24.95;;;;;;;1.12;100.00;95048.94;5013260;28;20197;-82
2022/12/10 09:47:37;;;;;;;54.20;23.67;;;;;;;1.17;100.00;95057.69;5021565;28;20045;-79
2022/12/10 09:50:14;;;;;;;52.50;24.33;;;;;;;1.19;100.00;95055.50;5023909;28;20062;-81
2022/12/10 09:52:43;;;;;;;60.00;25.77;;;;;;;1.19;100.00;95060.06;5025073;28;20069;-81
2022/12/10 09:55:14;;;;;;;53.42;25.02;;;;;;;1.18;100.00;95063.84;5025033;28;20049;-81
2022/12/10 09:57:43;;;;;;;58.55;25.40;;;;;;;1.19;100.00;95063.56;5024312;28;20060;-80
2022/12/10 10:00:21;;;;;;;50.25;24.73;;;;;;;1.17;100.00;95068.41;5026824;28;20046;-81
2022/12/10 10:02:49;;;;;;;51.53;23.92;;;;;;;1.03;100.00;95067.53;5027370;28;20056;-83
2022/12/10 10:05:22;;;;;;;52.90;23.92;;;;;;;1.07;100.00;95059.72;5023460;28;20045;-81
2022/12/10 10:07:52;;;;;;;51.85;23.08;;;;;;;1.09;100.00;95065.59;5022447;28;20045;-81
2022/12/10 10:10:24;;;;;;;52.75;23.52;;;;;;;1.12;100.00;95057.75;5025444;28;20049;-81
2022/12/10 10:12:53;;;;;;;52.97;24.45;;;;;;;1.09;100.00;95066.38;5027865;28;20072;-82
2022/12/10 10:15:26;;;;;;;57.05;25.60;;;;;;;1.08;100.00;95059.44;5025065;28;20049;-81
2022/12/10 10:17:56;;;;;;;52.85;24.90;;;;;;;1.08;100.00;95048.69;5017969;28;20042;-81
2022/12/10 10:20:23;;;;;;;49.60;22.85;;;;;;;1.08;100.00;95053.28;5028707;28;20046;-81
2022/12/10 10:22:49;;;;;;;50.92;23.63;;;;;;;1.12;100.00;95048.94;5023261;28;20056;-82
2022/12/10 10:25:18;;;;;;;58.53;24.65;;;;;;;1.04;100.00;95053.03;5016616;28;20049;-86
2022/12/10 10:27:45;;;;;;;57.50;24.30;;;;;;;0.93;100.00;95054.25;5015757;28;20046;-86
2022/12/10 10:30:16;;;;;;;49.00;24.38;;;;;;;0.95;100.00;95055.59;5018630;28;20530;-87
2022/12/10 10:32:50;;;;;;;53.72;23.35;;;;;;;1.01;100.00;95037.56;5017896;28;20053;-84
2022/12/10 10:35:31;;;;;;;50.92;23.25;;;;;;;1.01;100.00;95049.06;5019172;28;20502;-82
2022/12/10 10:38:00;;;;;;;54.55;23.77;;;;;;;0.99;100.00;95039.69;5011918;28;20045;-87
2022/12/10 10:40:31;;;;;;;48.75;22.98;;;;;;;1.03;100.00;95046.09;5019135;28;20064;-85
2022/12/10 10:42:59;;;;;;;56.53;24.85;;;;;;;1.01;100.00;95053.63;5013819;28;20548;-86
2022/12/10 10:45:37;;;;;;;49.33;22.90;;;;;;;1.06;100.00;95050.88;5019953;28;20050;-87
2022/12/10 10:48:12;;;;;;;47.80;22.23;;;;;;;1.09;100.00;95050.28;5010393;28;20042;-85
2022/12/10 10:50:41;;;;;;;49.58;22.70;;;;;;;1.10;100.00;95062.63;5020923;28;20050;-81
2022/12/10 10:53:25;;;;;;;47.95;22.83;;;;;;;1.11;100.00;95055.38;5020055;28;20041;-84
2022/12/10 10:55:54;;;;;;;53.03;23.83;;;;;;;1.10;100.00;95051.91;5021486;28;20042;-84
2022/12/10 10:58:22;;;;;;;51.05;22.95;;;;;;;1.05;100.00;95054.66;5024366;28;20046;-83
2022/12/10 11:01:01;;;;;;;49.50;22.58;;;;;;;0.99;100.00;95034.34;5023702;28;20046;-86
2022/12/10 11:03:31;;;;;;;56.58;25.08;;;;;;;0.85;100.00;95034.28;5018625;28;20056;-82
2022/12/10 11:05:59;;;;;;;51.92;22.63;;;;;;;0.90;100.00;95031.53;5020457;28;20045;-84
2022/12/10 11:08:31;;;;;;;51.90;23.65;;;;;;;0.91;100.00;95029.66;5020269;28;20077;-86
2022/12/10 11:11:03;;;;;;;54.17;24.33;;;;;;;0.94;100.00;95021.00;5014634;28;20046;-81
2022/12/10 11:13:32;;;;;;;54.20;23.73;;;;;;;0.97;100.00;95031.16;5020429;28;20054;-83
2022/12/10 11:16:02;;;;;;;59.50;26.95;;;;;;;0.98;100.00;95027.41;5020204;28;20045;-81
2022/12/10 11:18:35;;;;;;;59.67;27.30;;;;;;;1.03;100.00;95020.06;5020605;28;20521;-79
2022/12/10 11:21:06;;;;;;;;;;;;;;;1.04;100.00;95023.56;5018134;28;20042;-83
2022/12/10 11:23:39;;;;;;;51.28;23.50;;;;;;;1.04;100.00;95026.22;5015036;28;19921;-88
2022/12/10 11:26:22;;;;;;;55.55;25.42;;;;;;;1.09;100.00;95020.81;5015523;28;20038;-88
2022/12/10 11:29:03;;;;;;;58.50;25.52;;;;;;;1.13;100.00;95027.19;5015955;28;20042;-88
2022/12/10 11:31:46;;;;;;;57.20;23.90;;;;;;;1.14;100.00;95020.72;5015767;28;20077;-86
2022/12/10 11:34:20;;;;;;;61.95;25.02;;;;;;;0.94;100.00;95021.00;5014343;28;20045;-87